3037 6343 lars.toft@ekml.dk

Briefing

Lokal vejr:

Webcam East

Webcam East

Webcam West

Webcam West

 

Webcam North

Webcam North

 

 

Vejr station på flyvepladsen: http://ekml.dk/ekmlweather

Måløv DMI: http://www.dmi.dk/vejr/til-lands/byvejr/by/vis/DK/2760/M%C3%A5l%C3%B8v,Danmark

 

METAR for Roskilde:

EKRK 181950Z AUTO 16005KT 4300NDV BR BKN120/// 17/17 Q1008

(Denne METAR kommer ikke fra en officiel kilde)

Flyvevejr, Danmark:

METAR / TAF: http://www.dmi.dk/vejr/i-luften/metar-og-taf/
Centralvejrtjenesten: +45 39 15 72 72

Flygmet: https://www.flygmet.dk

NOTAM & Flyveplan:

NOTAM: http://briefing.naviair.dk/map.php?sLan=DK
Flyveplan: http://briefing.naviair.dk/briefing.php?sLan=DK

Afgiv FPL over telefon: Navair: +45 32 47 82 72
Afslut FPL over telefon: Navair: +45 32 46 23 30

Download FPL-Flyveplan: FPL Flyveplan
Vejledning til FPL-Flyveplan: Vejledning_FPL_31JAN2013

Flyvertaktisk Kommando (Restricted, Danger areas): http://www.flv.dk/milais/Navwarframe.html

Download VFR driftsflyveplan: VFR-Driftsflyveplan